createdAt,value
2018-06-04T00:00:51.849Z,19.18
2018-06-04T00:03:19.996Z,19.14
2018-06-04T00:05:48.136Z,19.14
2018-06-04T00:08:16.287Z,19.12
2018-06-04T00:10:44.426Z,19.11
2018-06-04T00:13:12.565Z,19.08
2018-06-04T00:15:40.717Z,19.08
2018-06-04T00:18:08.845Z,19.08
2018-06-04T00:20:36.979Z,19.06
2018-06-04T00:23:05.106Z,19.03
2018-06-04T00:25:33.237Z,19.00
2018-06-04T00:28:01.369Z,18.97
2018-06-04T00:30:29.496Z,18.96
2018-06-04T00:32:57.650Z,18.96
2018-06-04T00:35:25.772Z,18.98
2018-06-04T00:37:53.898Z,18.98
2018-06-04T00:40:22.064Z,18.93
2018-06-04T00:42:50.180Z,18.90
2018-06-04T00:45:18.333Z,18.89
2018-06-04T00:47:46.601Z,18.88
2018-06-04T00:50:14.739Z,18.90
2018-06-04T00:52:42.875Z,18.85
2018-06-04T00:55:11.018Z,18.87
2018-06-04T00:57:39.166Z,18.89
2018-06-04T01:00:07.306Z,18.90
2018-06-04T01:02:35.465Z,18.88
2018-06-04T01:05:03.576Z,18.91
2018-06-04T01:07:31.725Z,18.85
2018-06-04T01:09:59.841Z,18.81
2018-06-04T01:12:27.972Z,18.80
2018-06-04T01:14:56.110Z,18.80
2018-06-04T01:17:24.265Z,18.78
2018-06-04T01:19:52.416Z,18.76
2018-06-04T01:22:20.546Z,18.75
2018-06-04T01:24:48.694Z,18.74
2018-06-04T01:27:16.838Z,18.73
2018-06-04T01:29:44.970Z,18.73
2018-06-04T01:32:13.126Z,18.72
2018-06-04T01:34:41.251Z,18.76
2018-06-04T01:37:09.412Z,18.74
2018-06-04T01:39:37.567Z,18.69
2018-06-04T01:42:05.681Z,18.64
2018-06-04T01:44:33.838Z,18.65
2018-06-04T01:47:01.974Z,18.68
2018-06-04T01:49:30.103Z,18.67
2018-06-04T01:51:58.241Z,18.64
2018-06-04T01:54:26.400Z,18.60
2018-06-04T01:56:54.520Z,18.52
2018-06-04T01:59:22.651Z,18.53
2018-06-04T02:01:50.794Z,18.53
2018-06-04T02:04:18.924Z,18.48
2018-06-04T02:06:47.078Z,18.54
2018-06-04T02:09:15.237Z,18.52
2018-06-04T02:11:43.379Z,18.50
2018-06-04T02:14:11.736Z,18.53
2018-06-04T02:16:40.762Z,18.49
2018-06-04T02:19:08.905Z,18.46
2018-06-04T02:21:37.034Z,18.44
2018-06-04T02:24:05.234Z,18.45
2018-06-04T02:26:33.390Z,18.42
2018-06-04T02:29:01.565Z,18.43
2018-06-04T02:31:29.661Z,18.42
2018-06-04T02:33:57.798Z,18.39
2018-06-04T02:36:25.943Z,18.38
2018-06-04T02:38:54.230Z,18.34
2018-06-04T02:41:22.344Z,18.34
2018-06-04T02:43:50.478Z,18.31
2018-06-04T02:46:18.629Z,18.29
2018-06-04T02:48:46.759Z,18.24
2018-06-04T02:51:14.898Z,18.24
2018-06-04T02:53:43.034Z,18.26
2018-06-04T02:56:11.166Z,18.24
2018-06-04T02:58:39.305Z,18.19
2018-06-04T03:01:07.453Z,18.21
2018-06-04T03:03:35.593Z,18.20
2018-06-04T03:06:03.733Z,18.24
2018-06-04T03:08:31.881Z,18.20
2018-06-04T03:11:00.018Z,18.17
2018-06-04T03:13:28.158Z,18.15
2018-06-04T03:15:56.284Z,18.14
2018-06-04T03:18:24.400Z,18.14
2018-06-04T03:20:52.517Z,18.14
2018-06-04T03:23:20.658Z,18.15
2018-06-04T03:25:48.794Z,18.17
2018-06-04T03:28:16.927Z,18.17
2018-06-04T03:30:45.081Z,18.15
2018-06-04T03:33:13.408Z,18.16
2018-06-04T03:35:41.532Z,18.21
2018-06-04T03:38:09.656Z,18.23
2018-06-04T03:40:37.804Z,18.24
2018-06-04T03:43:05.952Z,18.23
2018-06-04T03:45:34.065Z,18.25
2018-06-04T03:48:02.210Z,18.27
2018-06-04T03:50:30.356Z,18.30
2018-06-04T03:52:58.512Z,18.32
2018-06-04T03:55:26.653Z,18.32
2018-06-04T03:57:54.781Z,18.29
2018-06-04T04:00:22.941Z,18.27
2018-06-04T04:02:51.127Z,18.29
2018-06-04T04:05:19.216Z,18.35
2018-06-04T04:08:16.643Z,18.03
2018-06-04T04:10:45.561Z,17.98
2018-06-04T04:13:14.485Z,17.97
2018-06-04T04:15:43.403Z,17.99
2018-06-04T04:18:12.308Z,18.04
2018-06-04T04:20:41.258Z,18.05
2018-06-04T04:23:10.246Z,18.04
2018-06-04T04:25:39.279Z,18.00
2018-06-04T04:28:08.246Z,18.03
2018-06-04T04:30:41.061Z,18.05
2018-06-04T04:33:10.018Z,18.09
2018-06-04T04:35:38.954Z,18.11
2018-06-04T04:38:07.895Z,18.11
2018-06-04T04:40:36.853Z,18.16
2018-06-04T04:43:06.328Z,18.19
2018-06-04T04:45:35.224Z,18.20
2018-06-04T04:48:04.213Z,18.24
2018-06-04T04:50:33.114Z,18.31
2018-06-04T04:53:02.014Z,18.36
2018-06-04T04:55:30.960Z,18.36
2018-06-04T04:57:59.946Z,18.36
2018-06-04T05:00:28.906Z,18.40
2018-06-04T05:02:57.994Z,18.44
2018-06-04T05:05:30.615Z,18.51
2018-06-04T05:07:59.539Z,18.56
2018-06-04T05:10:31.493Z,18.58
2018-06-04T05:13:00.410Z,18.61
2018-06-04T05:15:29.338Z,18.63
2018-06-04T05:17:58.240Z,18.70
2018-06-04T05:20:27.280Z,18.73
2018-06-04T05:22:56.211Z,18.74
2018-06-04T05:25:25.142Z,18.78
2018-06-04T05:27:54.053Z,18.81
2018-06-04T05:30:22.991Z,18.92
2018-06-04T05:32:51.940Z,18.96
2018-06-04T05:35:21.145Z,19.03
2018-06-04T05:37:50.322Z,19.05
2018-06-04T05:40:19.517Z,19.11
2018-06-04T05:42:48.446Z,19.12
2018-06-04T05:45:17.375Z,19.17
2018-06-04T05:47:46.298Z,19.22
2018-06-04T05:50:15.608Z,19.26
2018-06-04T05:52:44.554Z,19.33
2018-06-04T05:55:13.475Z,19.40
2018-06-04T05:57:42.403Z,19.46
2018-06-04T06:00:11.348Z,19.52
2018-06-04T06:02:40.264Z,19.55
2018-06-04T06:05:09.219Z,19.63
2018-06-04T06:07:38.488Z,19.65
2018-06-04T06:10:07.422Z,19.64
2018-06-04T06:12:36.365Z,19.69
2018-06-04T06:15:05.288Z,19.72
2018-06-04T06:17:34.203Z,19.75
2018-06-04T06:20:03.201Z,19.80
2018-06-04T06:22:32.131Z,19.86
2018-06-04T06:25:01.095Z,19.88
2018-06-04T06:27:30.042Z,19.86
2018-06-04T06:29:58.966Z,19.88
2018-06-04T06:32:27.909Z,19.94
2018-06-04T06:34:56.850Z,19.98
2018-06-04T06:37:25.771Z,20.03
2018-06-04T06:39:54.740Z,20.09
2018-06-04T06:42:23.654Z,20.15
2018-06-04T06:44:52.582Z,20.20
2018-06-04T06:47:21.503Z,20.26
2018-06-04T06:49:50.414Z,20.35
2018-06-04T06:52:19.359Z,20.41
2018-06-04T06:54:48.298Z,20.44
2018-06-04T06:57:17.214Z,20.49
2018-06-04T06:59:46.188Z,20.47
2018-06-04T07:02:15.118Z,20.52
2018-06-04T07:04:44.038Z,20.56
2018-06-04T07:07:13.262Z,20.63
2018-06-04T07:09:42.194Z,20.61
2018-06-04T07:12:12.046Z,20.66
2018-06-04T07:14:41.015Z,20.73
2018-06-04T07:17:10.135Z,20.74
2018-06-04T07:19:39.042Z,20.78
2018-06-04T07:22:07.935Z,20.83
2018-06-04T07:24:36.911Z,20.88
2018-06-04T07:27:06.040Z,20.93
2018-06-04T07:29:34.970Z,20.94
2018-06-04T07:32:03.900Z,20.99
2018-06-04T07:34:32.864Z,21.03
2018-06-04T07:37:01.954Z,21.05
2018-06-04T07:39:30.907Z,21.17
2018-06-04T07:42:00.139Z,21.21
2018-06-04T07:44:29.209Z,21.28
2018-06-04T07:46:58.121Z,21.26
2018-06-04T07:49:27.086Z,21.34
2018-06-04T07:51:56.049Z,21.40
2018-06-04T07:54:24.978Z,21.44
2018-06-04T07:56:54.265Z,21.47
2018-06-04T07:59:23.178Z,21.50
2018-06-04T08:01:52.128Z,21.57
2018-06-04T08:04:21.129Z,21.67
2018-06-04T08:06:49.988Z,21.60
2018-06-04T08:09:18.888Z,21.68
2018-06-04T08:11:47.851Z,21.78
2018-06-04T08:14:16.757Z,21.81
2018-06-04T08:16:45.744Z,21.79
2018-06-04T08:19:14.671Z,21.92
2018-06-04T08:21:43.599Z,22.02
2018-06-04T08:24:12.577Z,22.02
2018-06-04T08:26:41.443Z,22.00
2018-06-04T08:29:10.444Z,21.93
2018-06-04T08:31:39.369Z,21.98
2018-06-04T08:34:08.638Z,22.03
2018-06-04T08:36:37.570Z,22.03
2018-06-04T08:39:08.345Z,22.02
2018-06-04T08:41:37.267Z,22.08
2018-06-04T08:44:06.198Z,22.08
2018-06-04T08:46:35.171Z,22.20
2018-06-04T08:49:04.080Z,22.24
2018-06-04T08:51:33.016Z,22.25
2018-06-04T08:54:01.975Z,22.23
2018-06-04T08:56:31.034Z,22.22
2018-06-04T08:58:59.998Z,22.28
2018-06-04T09:01:30.700Z,22.49
2018-06-04T09:04:00.114Z,22.52
2018-06-04T09:06:29.378Z,22.53
2018-06-04T09:08:58.329Z,22.52
2018-06-04T09:11:27.321Z,22.53
2018-06-04T09:13:56.396Z,22.60
2018-06-04T09:16:25.323Z,22.63
2018-06-04T09:18:54.415Z,22.72
2018-06-04T09:21:23.354Z,22.80
2018-06-04T09:23:52.275Z,22.66
2018-06-04T09:26:21.224Z,22.54
2018-06-04T09:28:50.242Z,22.54
2018-06-04T09:31:19.172Z,22.62
2018-06-04T09:33:48.096Z,22.74
2018-06-04T09:36:17.038Z,22.76
2018-06-04T09:38:45.965Z,22.99
2018-06-04T09:41:14.887Z,23.02
2018-06-04T09:43:43.794Z,23.02
2018-06-04T09:46:12.728Z,23.09
2018-06-04T09:48:41.654Z,23.12
2018-06-04T09:51:10.582Z,23.22
2018-06-04T09:53:39.606Z,23.25
2018-06-04T09:56:08.545Z,23.33
2018-06-04T09:58:37.487Z,23.27
2018-06-04T10:01:07.448Z,23.35
2018-06-04T10:03:36.367Z,23.37
2018-06-04T10:06:05.427Z,23.39
2018-06-04T10:08:34.602Z,23.49
2018-06-04T10:11:03.508Z,23.43
2018-06-04T10:13:32.440Z,23.30
2018-06-04T10:16:01.435Z,23.39
2018-06-04T10:18:30.435Z,23.40
2018-06-04T10:20:59.410Z,23.28
2018-06-04T10:23:28.368Z,23.38
2018-06-04T10:25:57.351Z,23.47
2018-06-04T10:28:26.249Z,23.57
2018-06-04T10:30:55.145Z,23.52
2018-06-04T10:33:24.079Z,23.55
2018-06-04T10:35:53.273Z,23.68
2018-06-04T10:38:22.444Z,23.79
2018-06-04T10:40:51.395Z,23.78
2018-06-04T10:43:20.331Z,23.87
2018-06-04T10:45:49.257Z,23.87
2018-06-04T10:48:18.182Z,24.01
2018-06-04T10:50:47.080Z,23.90
2018-06-04T10:53:16.024Z,23.76
2018-06-04T10:55:44.935Z,23.66
2018-06-04T10:58:14.122Z,23.79
2018-06-04T11:00:43.054Z,23.95
2018-06-04T11:03:11.996Z,23.93
2018-06-04T11:05:40.942Z,23.80
2018-06-04T11:08:09.868Z,23.75
2018-06-04T11:10:38.776Z,23.73
2018-06-04T11:13:07.695Z,23.84
2018-06-04T11:15:36.637Z,23.94
2018-06-04T11:18:05.556Z,24.11
2018-06-04T11:20:34.506Z,24.11
2018-06-04T11:23:03.426Z,24.08
2018-06-04T11:25:32.348Z,23.99
2018-06-04T11:28:01.549Z,23.89
2018-06-04T11:30:30.649Z,23.90
2018-06-04T11:32:59.558Z,23.91
2018-06-04T11:35:29.500Z,24.19
2018-06-04T11:37:58.451Z,24.48
2018-06-04T11:40:27.362Z,24.60
2018-06-04T11:42:56.281Z,24.67
2018-06-04T11:45:25.285Z,24.58
2018-06-04T11:47:54.181Z,24.36
2018-06-04T11:50:23.147Z,24.24
2018-06-04T11:52:52.068Z,24.16
2018-06-04T11:55:20.989Z,24.01
2018-06-04T11:57:53.391Z,24.03
2018-06-04T12:00:22.522Z,24.18
2018-06-04T12:02:51.468Z,24.39
2018-06-04T12:05:20.425Z,24.56
2018-06-04T12:07:52.975Z,24.65
2018-06-04T12:10:21.899Z,24.56
2018-06-04T12:12:50.814Z,24.40
2018-06-04T12:15:19.763Z,24.32
2018-06-04T12:17:48.671Z,24.23
2018-06-04T12:20:17.599Z,24.19
2018-06-04T12:22:46.735Z,24.40
2018-06-04T12:25:15.672Z,24.60
2018-06-04T12:27:44.880Z,24.77
2018-06-04T12:30:13.787Z,24.63
2018-06-04T12:32:42.691Z,24.60
2018-06-04T12:35:11.648Z,24.55
2018-06-04T12:37:40.630Z,24.73
2018-06-04T12:40:09.602Z,24.87
2018-06-04T12:42:38.533Z,24.89
2018-06-04T12:45:07.461Z,24.95
2018-06-04T12:47:36.401Z,25.11
2018-06-04T12:50:05.325Z,25.19
2018-06-04T12:52:34.285Z,25.31
2018-06-04T12:55:03.228Z,25.00
2018-06-04T12:57:32.131Z,24.78
2018-06-04T13:00:01.094Z,24.64
2018-06-04T13:02:30.436Z,24.56
2018-06-04T13:04:59.623Z,24.39
2018-06-04T13:07:28.712Z,24.27
2018-06-04T13:09:57.645Z,24.20
2018-06-04T13:12:26.567Z,24.26
2018-06-04T13:14:55.501Z,24.72
2018-06-04T13:17:25.404Z,25.03
2018-06-04T13:19:54.722Z,24.93
2018-06-04T13:22:24.191Z,24.78
2018-06-04T13:24:53.354Z,24.77
2018-06-04T13:27:22.289Z,24.71
2018-06-04T13:29:51.224Z,24.89
2018-06-04T13:32:20.140Z,24.96
2018-06-04T13:34:49.077Z,25.07
2018-06-04T13:37:18.034Z,25.23
2018-06-04T13:39:46.988Z,25.43
2018-06-04T13:42:15.897Z,25.52
2018-06-04T13:44:44.843Z,25.38
2018-06-04T13:47:13.776Z,24.91
2018-06-04T13:49:42.681Z,24.57
2018-06-04T13:52:11.902Z,24.40
2018-06-04T13:54:40.819Z,24.55
2018-06-04T13:57:09.930Z,24.76
2018-06-04T13:59:38.857Z,25.07
2018-06-04T14:02:07.811Z,25.29
2018-06-04T14:04:36.750Z,25.27
2018-06-04T14:07:05.687Z,25.38
2018-06-04T14:09:34.631Z,25.51
2018-06-04T14:12:03.543Z,25.28
2018-06-04T14:14:32.457Z,24.99
2018-06-04T14:17:02.393Z,24.84
2018-06-04T14:19:31.632Z,24.81
2018-06-04T14:22:00.604Z,24.84
2018-06-04T14:24:29.553Z,24.97
2018-06-04T14:26:59.056Z,25.02
2018-06-04T14:29:27.971Z,24.85
2018-06-04T14:31:56.886Z,24.77
2018-06-04T14:34:25.850Z,24.78
2018-06-04T14:36:55.083Z,24.92
2018-06-04T14:39:24.105Z,24.89
2018-06-04T14:41:53.072Z,24.89
2018-06-04T14:44:22.046Z,24.99
2018-06-04T14:46:50.934Z,25.02
2018-06-04T14:49:20.042Z,24.97
2018-06-04T14:51:48.958Z,25.08
2018-06-04T14:54:17.870Z,25.22
2018-06-04T14:56:46.792Z,25.27
2018-06-04T14:59:16.090Z,25.14
2018-06-04T15:01:45.011Z,25.19
2018-06-04T15:04:13.965Z,25.05
2018-06-04T15:06:42.950Z,25.21
2018-06-04T15:09:11.889Z,25.26
2018-06-04T15:11:40.788Z,25.19
2018-06-04T15:14:09.825Z,25.12
2018-06-04T15:16:38.779Z,25.01
2018-06-04T15:19:08.024Z,25.00
2018-06-04T15:21:36.923Z,24.99
2018-06-04T15:24:05.860Z,25.00
2018-06-04T15:26:34.879Z,25.01
2018-06-04T15:29:03.849Z,25.00
2018-06-04T15:31:32.797Z,25.07
2018-06-04T15:34:01.909Z,25.14
2018-06-04T15:36:31.092Z,25.12
2018-06-04T15:38:59.999Z,25.03
2018-06-04T15:41:28.917Z,25.02
2018-06-04T15:43:57.851Z,25.01
2018-06-04T15:46:26.786Z,25.02
2018-06-04T15:48:55.726Z,25.11
2018-06-04T15:51:24.679Z,25.10
2018-06-04T15:53:53.591Z,24.87
2018-06-04T15:56:22.538Z,24.85
2018-06-04T15:58:51.477Z,24.93
2018-06-04T16:01:20.417Z,24.96
2018-06-04T16:03:49.307Z,24.95
2018-06-04T16:06:18.218Z,24.93
2018-06-04T16:08:50.631Z,24.86
2018-06-04T16:11:19.578Z,24.72
2018-06-04T16:13:48.545Z,24.52
2018-06-04T16:16:17.488Z,24.48
2018-06-04T16:18:46.447Z,24.60
2018-06-04T16:21:15.389Z,24.70
2018-06-04T16:23:44.297Z,24.66
2018-06-04T16:26:13.530Z,24.64
2018-06-04T16:28:42.488Z,24.68
2018-06-04T16:31:11.399Z,24.67
2018-06-04T16:33:40.317Z,24.65
2018-06-04T16:36:09.268Z,24.61
2018-06-04T16:38:38.255Z,24.68
2018-06-04T16:41:07.228Z,24.63
2018-06-04T16:43:36.165Z,24.66
2018-06-04T16:46:05.223Z,24.56
2018-06-04T16:48:34.199Z,24.56
2018-06-04T16:51:03.130Z,24.57
2018-06-04T16:53:32.073Z,24.57
2018-06-04T16:56:00.987Z,24.57
2018-06-04T16:58:29.935Z,24.58
2018-06-04T17:00:58.849Z,24.61
2018-06-04T17:03:27.792Z,24.63
2018-06-04T17:05:56.726Z,24.58
2018-06-04T17:08:29.166Z,24.49
2018-06-04T17:10:58.129Z,24.45
2018-06-04T17:13:27.048Z,24.44
2018-06-04T17:15:56.006Z,24.36
2018-06-04T17:18:24.918Z,24.38
2018-06-04T17:20:53.859Z,24.34
2018-06-04T17:23:22.782Z,24.36
2018-06-04T17:25:51.715Z,24.34
2018-06-04T17:28:20.626Z,24.32
2018-06-04T17:30:49.565Z,24.31
2018-06-04T17:33:18.542Z,24.27
2018-06-04T17:35:47.459Z,24.26
2018-06-04T17:38:16.364Z,24.24
2018-06-04T17:40:45.313Z,24.18
2018-06-04T17:43:14.257Z,24.21
2018-06-04T17:45:43.170Z,24.15
2018-06-04T17:48:13.116Z,24.09
2018-06-04T17:50:42.016Z,24.08
2018-06-04T17:53:10.968Z,24.09
2018-06-04T17:55:39.922Z,24.08
2018-06-04T17:58:08.842Z,24.03
2018-06-04T18:00:37.800Z,24.01
2018-06-04T18:03:06.744Z,23.96
2018-06-04T18:05:35.697Z,23.94
2018-06-04T18:08:04.588Z,23.96
2018-06-04T18:10:33.512Z,23.91
2018-06-04T18:13:02.444Z,23.88
2018-06-04T18:15:31.357Z,23.82
2018-06-04T18:18:00.328Z,23.78
2018-06-04T18:20:29.225Z,23.77
2018-06-04T18:23:01.794Z,23.75
2018-06-04T18:25:31.632Z,23.70
2018-06-04T18:28:00.945Z,23.67
2018-06-04T18:30:29.892Z,23.62
2018-06-04T18:32:58.825Z,23.56
2018-06-04T18:35:27.896Z,23.51
2018-06-04T18:37:56.851Z,23.44
2018-06-04T18:40:25.751Z,23.44
2018-06-04T18:42:54.713Z,23.43
2018-06-04T18:45:23.630Z,23.37
2018-06-04T18:47:52.568Z,23.35
2018-06-04T18:50:21.867Z,23.29
2018-06-04T18:52:50.814Z,23.25
2018-06-04T18:55:19.749Z,23.21
2018-06-04T18:57:48.837Z,23.20
2018-06-04T19:00:17.817Z,23.17
2018-06-04T19:02:46.739Z,23.14
2018-06-04T19:05:15.680Z,23.13
2018-06-04T19:07:44.621Z,23.10
2018-06-04T19:10:13.533Z,23.07
2018-06-04T19:12:46.189Z,22.97
2018-06-04T19:15:15.090Z,22.94
2018-06-04T19:17:44.005Z,22.93
2018-06-04T19:20:16.786Z,22.86
2018-06-04T19:22:45.716Z,22.84
2018-06-04T19:25:14.632Z,22.79
2018-06-04T19:27:43.602Z,22.75
2018-06-04T19:30:12.578Z,22.70
2018-06-04T19:32:41.595Z,22.65
2018-06-04T19:35:12.534Z,22.63
2018-06-04T19:37:41.498Z,22.57
2018-06-04T19:40:10.419Z,22.50
2018-06-04T19:42:39.328Z,22.41
2018-06-04T19:45:08.842Z,22.40
2018-06-04T19:47:37.770Z,22.38
2018-06-04T19:50:06.713Z,22.30
2018-06-04T19:52:41.206Z,22.21
2018-06-04T19:55:10.160Z,22.23
2018-06-04T19:57:39.163Z,22.21
2018-06-04T20:00:08.106Z,22.19
2018-06-04T20:02:37.027Z,22.17
2018-06-04T20:05:16.338Z,22.10
2018-06-04T20:07:45.835Z,22.02
2018-06-04T20:10:14.770Z,21.95
2018-06-04T20:12:43.745Z,21.97
2018-06-04T20:15:12.669Z,21.89
2018-06-04T20:17:41.598Z,21.84
2018-06-04T20:20:10.580Z,21.83
2018-06-04T20:22:39.479Z,21.80
2018-06-04T20:25:12.074Z,21.81
2018-06-04T20:27:40.975Z,21.80
2018-06-04T20:30:09.897Z,21.71
2018-06-04T20:32:38.906Z,21.67
2018-06-04T20:35:08.252Z,21.55
2018-06-04T20:37:37.650Z,21.58
2018-06-04T20:40:06.666Z,21.54
2018-06-04T20:42:35.693Z,21.53
2018-06-04T20:45:04.786Z,21.52
2018-06-04T20:47:33.772Z,21.44
2018-06-04T20:50:02.967Z,21.37
2018-06-04T20:52:31.896Z,21.39
2018-06-04T20:55:00.894Z,21.29
2018-06-04T20:57:29.847Z,21.32
2018-06-04T20:59:58.889Z,21.22
2018-06-04T21:02:27.889Z,21.28
2018-06-04T21:04:56.905Z,21.22
2018-06-04T21:07:26.054Z,21.28
2018-06-04T21:09:55.020Z,21.23
2018-06-04T21:12:23.926Z,21.14
2018-06-04T21:14:52.930Z,21.14
2018-06-04T21:17:22.501Z,21.06
2018-06-04T21:19:51.520Z,21.06
2018-06-04T21:22:20.458Z,21.05
2018-06-04T21:24:49.527Z,21.03
2018-06-04T21:27:18.549Z,21.00
2018-06-04T21:29:47.503Z,20.97
2018-06-04T21:32:16.436Z,20.93
2018-06-04T21:34:45.355Z,20.80
2018-06-04T21:37:14.431Z,20.70
2018-06-04T21:39:43.501Z,20.74
2018-06-04T21:42:12.495Z,20.67
2018-06-04T21:44:41.429Z,20.47
2018-06-04T21:47:10.453Z,20.48
2018-06-04T21:49:39.527Z,20.44
2018-06-04T21:52:08.472Z,20.51
2018-06-04T21:54:38.507Z,20.51
2018-06-04T21:57:07.593Z,20.42
2018-06-04T21:59:36.607Z,20.29
2018-06-04T22:02:06.061Z,20.23
2018-06-04T22:04:34.951Z,20.11
2018-06-04T22:07:03.891Z,20.09
2018-06-04T22:09:32.783Z,20.04
2018-06-04T22:12:01.732Z,19.93
2018-06-04T22:14:30.781Z,20.07
2018-06-04T22:16:59.850Z,19.93
2018-06-04T22:19:28.893Z,20.02
2018-06-04T22:21:57.819Z,20.02
2018-06-04T22:24:26.790Z,20.03
2018-06-04T22:26:56.396Z,19.96
2018-06-04T22:29:25.406Z,19.76
2018-06-04T22:31:54.313Z,19.75
2018-06-04T22:34:23.235Z,19.80
2018-06-04T22:36:52.146Z,19.80
2018-06-04T22:39:21.549Z,19.73
2018-06-04T22:41:50.537Z,19.60
2018-06-04T22:44:19.487Z,19.53
2018-06-04T22:46:48.395Z,19.55
2018-06-04T22:49:17.312Z,19.51
2018-06-04T22:51:46.228Z,19.39
2018-06-04T22:54:15.146Z,19.38
2018-06-04T22:56:44.083Z,19.32
2018-06-04T22:59:13.010Z,19.33
2018-06-04T23:01:42.034Z,19.33
2018-06-04T23:04:11.100Z,19.36
2018-06-04T23:06:40.093Z,19.27
2018-06-04T23:09:09.165Z,19.15
2018-06-04T23:11:38.098Z,19.16
2018-06-04T23:14:07.147Z,19.25
2018-06-04T23:16:36.124Z,19.23
2018-06-04T23:19:05.182Z,19.22
2018-06-04T23:21:34.108Z,19.07
2018-06-04T23:24:03.684Z,19.14
2018-06-04T23:26:32.580Z,19.18
2018-06-04T23:29:01.525Z,19.21
2018-06-04T23:31:30.466Z,19.22
2018-06-04T23:33:59.440Z,19.12
2018-06-04T23:36:28.535Z,19.18
2018-06-04T23:38:57.429Z,19.05
2018-06-04T23:41:26.388Z,19.04
2018-06-04T23:43:55.392Z,19.11
2018-06-04T23:46:24.351Z,19.08
2018-06-04T23:48:54.010Z,19.10
2018-06-04T23:51:22.978Z,19.01
2018-06-04T23:53:52.025Z,19.09
2018-06-04T23:56:20.953Z,19.00
2018-06-04T23:58:50.432Z,19.08
